createdAt,value
2023-11-01T00:02:07.487Z,99819.88
2023-11-01T00:05:09.768Z,99812.25
2023-11-01T00:08:12.099Z,99844.28
2023-11-01T00:11:14.333Z,99845.03
2023-11-01T00:14:16.626Z,99832.56
2023-11-01T00:17:19.010Z,99844.41
2023-11-01T00:20:21.319Z,99851.88
2023-11-01T00:23:23.540Z,99849.44
2023-11-01T00:26:25.905Z,99849.34
2023-11-01T00:29:30.944Z,99857.38
2023-11-01T00:32:33.372Z,99860.56
2023-11-01T00:35:36.667Z,99857.81
2023-11-01T00:38:38.998Z,99843.16
2023-11-01T00:41:41.232Z,99857.09
2023-11-01T00:44:43.604Z,99870.88
2023-11-01T00:47:45.912Z,99874.13
2023-11-01T00:50:48.270Z,99871.63
2023-11-01T00:53:50.493Z,99871.69
2023-11-01T00:56:52.682Z,99870.06
2023-11-01T00:59:55.394Z,99874.38
2023-11-01T01:02:57.936Z,99873.88
2023-11-01T01:06:01.117Z,99859.78
2023-11-01T01:09:03.738Z,99882.34
2023-11-01T01:12:06.510Z,99867.38
2023-11-01T01:15:09.045Z,99877.81
2023-11-01T01:18:11.669Z,99887.50
2023-11-01T01:21:16.848Z,99869.72
2023-11-01T01:24:19.062Z,99889.81
2023-11-01T01:27:21.243Z,99886.06
2023-11-01T01:30:23.466Z,99890.84
2023-11-01T01:33:28.359Z,99868.91
2023-11-01T01:36:30.638Z,99882.25
2023-11-01T01:39:32.830Z,99894.09
2023-11-01T01:42:35.123Z,99897.91
2023-11-01T01:45:37.687Z,99895.78
2023-11-01T01:48:40.933Z,99893.59
2023-11-01T01:51:43.547Z,99878.53
2023-11-01T01:54:45.780Z,99873.59
2023-11-01T01:57:48.106Z,99884.50
2023-11-01T02:00:51.449Z,99898.94
2023-11-01T02:03:53.728Z,99906.00
2023-11-01T02:06:55.975Z,99915.41
2023-11-01T02:09:58.174Z,99912.19
2023-11-01T02:13:13.712Z,99909.19
2023-11-01T02:16:15.917Z,99917.13
2023-11-01T02:19:18.357Z,99913.72
2023-11-01T02:22:20.749Z,99928.31
2023-11-01T02:25:23.062Z,99924.09
2023-11-01T02:28:25.288Z,99930.66
2023-11-01T02:31:27.616Z,99934.41
2023-11-01T02:34:30.146Z,99925.72
2023-11-01T02:37:32.377Z,99934.56
2023-11-01T02:40:36.203Z,99931.06
2023-11-01T02:43:38.353Z,99943.66
2023-11-01T02:46:40.631Z,99945.28
2023-11-01T02:49:42.814Z,99943.09
2023-11-01T02:52:45.010Z,99954.13
2023-11-01T02:55:47.155Z,99962.47
2023-11-01T02:58:49.322Z,99961.09
2023-11-01T03:01:52.147Z,99963.19
2023-11-01T03:04:54.338Z,99976.03
2023-11-01T03:07:57.473Z,99976.94
2023-11-01T03:10:59.818Z,99979.25
2023-11-01T03:14:02.068Z,99980.34
2023-11-01T03:17:04.853Z,99978.72
2023-11-01T03:20:14.591Z,99973.59
2023-11-01T03:23:16.834Z,99975.78
2023-11-01T03:26:19.168Z,99972.09
2023-11-01T03:29:22.000Z,99969.41
2023-11-01T03:32:24.286Z,99984.66
2023-11-01T03:35:27.182Z,99988.41
2023-11-01T03:38:29.433Z,100000.50
2023-11-01T03:41:32.121Z,100001.88
2023-11-01T03:44:35.179Z,100005.59
2023-11-01T03:47:37.526Z,100010.28
2023-11-01T03:50:39.802Z,100015.13
2023-11-01T03:53:42.067Z,100006.53
2023-11-01T03:56:44.486Z,100015.97
2023-11-01T03:59:46.928Z,100012.72
2023-11-01T04:02:53.504Z,100026.75
2023-11-01T04:05:56.172Z,100027.56
2023-11-01T04:09:00.090Z,100028.59
2023-11-01T04:12:02.250Z,100028.28
2023-11-01T04:15:07.533Z,100031.19
2023-11-01T04:18:09.789Z,100037.84
2023-11-01T04:21:12.073Z,100053.91
2023-11-01T04:24:14.892Z,100047.63
2023-11-01T04:27:17.071Z,100044.03
2023-11-01T04:30:19.393Z,100044.88
2023-11-01T04:33:21.572Z,100043.97
2023-11-01T04:36:26.546Z,100035.97
2023-11-01T04:39:28.809Z,100038.66
2023-11-01T04:42:31.010Z,100041.91
2023-11-01T04:45:33.218Z,100047.25
2023-11-01T04:48:35.412Z,100049.25
2023-11-01T04:51:37.656Z,100047.38
2023-11-01T04:54:39.876Z,100053.19
2023-11-01T04:57:44.880Z,100034.19
2023-11-01T05:00:47.068Z,100039.81
2023-11-01T05:03:49.912Z,100035.03
2023-11-01T05:06:52.627Z,100036.84
2023-11-01T05:09:54.793Z,100035.91
2023-11-01T05:12:58.562Z,100049.31
2023-11-01T05:16:00.746Z,100051.88
2023-11-01T05:19:02.973Z,100056.56
2023-11-01T05:22:05.132Z,100038.34
2023-11-01T05:25:14.871Z,100046.28
2023-11-01T05:28:17.405Z,100058.53
2023-11-01T05:31:19.612Z,100055.09
2023-11-01T05:34:21.812Z,100071.13
2023-11-01T05:37:24.001Z,100066.16
2023-11-01T05:40:26.182Z,100078.84
2023-11-01T05:43:28.369Z,100080.38
2023-11-01T05:46:30.733Z,100095.97
2023-11-01T05:49:33.034Z,100095.97
2023-11-01T05:52:35.677Z,100117.94
2023-11-01T05:55:48.960Z,100114.69
2023-11-01T05:59:00.798Z,100114.34
2023-11-01T06:02:03.025Z,100108.88
2023-11-01T06:05:05.668Z,100119.66
2023-11-01T06:08:10.210Z,100127.41
2023-11-01T06:11:12.558Z,100127.31
2023-11-01T06:14:14.987Z,100134.75
2023-11-01T06:17:17.414Z,100137.75
2023-11-01T06:20:19.669Z,100134.50
2023-11-01T06:23:21.890Z,100140.53
2023-11-01T06:26:24.128Z,100142.25
2023-11-01T06:29:26.450Z,100148.09
2023-11-01T06:32:28.637Z,100149.22
2023-11-01T06:35:30.829Z,100142.91
2023-11-01T06:38:33.560Z,100143.31
2023-11-01T06:41:35.831Z,100139.44
2023-11-01T06:44:38.109Z,100134.66
2023-11-01T06:47:40.485Z,100132.66
2023-11-01T06:50:42.992Z,100124.22
2023-11-01T06:53:45.247Z,100134.72
2023-11-01T06:56:47.931Z,100120.00
2023-11-01T06:59:50.149Z,100122.94
2023-11-01T07:02:52.519Z,100126.09
2023-11-01T07:05:54.734Z,100115.56
2023-11-01T07:08:57.289Z,100124.63
2023-11-01T07:11:59.547Z,100110.56
2023-11-01T07:15:01.748Z,100114.97
2023-11-01T07:18:04.186Z,100114.19
2023-11-01T07:21:07.037Z,100112.06
2023-11-01T07:24:09.419Z,100116.84
2023-11-01T07:27:11.615Z,100130.09
2023-11-01T07:30:13.952Z,100126.09
2023-11-01T07:33:16.271Z,100140.72
2023-11-01T07:36:19.088Z,100125.94
2023-11-01T07:39:21.275Z,100134.63
2023-11-01T07:42:23.503Z,100125.19
2023-11-01T07:45:25.713Z,100131.31
2023-11-01T07:48:27.968Z,100140.19
2023-11-01T07:51:30.475Z,100139.44
2023-11-01T07:54:33.176Z,100123.31
2023-11-01T07:57:35.559Z,100137.97
2023-11-01T08:00:37.722Z,100142.50
2023-11-01T08:03:40.180Z,100141.78
2023-11-01T08:06:42.466Z,100151.34
2023-11-01T08:09:45.313Z,100154.06
2023-11-01T08:12:47.578Z,100143.28
2023-11-01T08:15:50.477Z,100134.25
2023-11-01T08:50:43.087Z,100145.19
2023-11-01T09:06:01.397Z,100147.28
2023-11-01T09:21:44.282Z,100159.66
2023-11-01T09:25:47.920Z,100169.94
2023-11-01T09:41:17.834Z,100193.22
2023-11-01T09:52:40.688Z,100197.69
2023-11-01T09:56:18.468Z,100203.63
2023-11-01T10:11:19.631Z,100192.34
2023-11-01T10:15:36.898Z,100198.94
2023-11-01T10:27:41.222Z,100199.88
2023-11-01T10:32:12.446Z,100191.81
2023-11-01T10:35:50.901Z,100175.50
2023-11-01T10:43:43.414Z,100157.84
2023-11-01T10:55:07.582Z,100156.06
2023-11-01T10:59:00.012Z,100139.34
2023-11-01T11:10:43.183Z,100137.59
2023-11-01T11:19:02.389Z,100116.91
2023-11-01T11:31:20.118Z,100088.13
2023-11-01T11:59:47.685Z,100067.44
2023-11-01T12:15:53.012Z,100057.41
2023-11-01T12:23:23.553Z,100040.41
2023-11-01T12:32:11.960Z,100037.13
2023-11-01T12:49:16.137Z,100020.31
2023-11-01T12:57:01.086Z,100011.94
2023-11-01T13:09:26.911Z,100005.94
2023-11-01T13:13:35.409Z,99990.78
2023-11-01T13:17:19.076Z,100000.22
2023-11-01T13:25:43.165Z,99998.56
2023-11-01T13:30:07.720Z,99979.91
2023-11-01T13:56:02.152Z,99979.00
2023-11-01T14:07:22.244Z,99964.91
2023-11-01T14:19:13.197Z,99980.25
2023-11-01T15:00:18.591Z,99935.53
2023-11-01T15:31:48.215Z,99927.81
2023-11-01T15:56:52.638Z,99920.22
2023-11-01T16:20:37.673Z,99914.47
2023-11-01T16:23:55.662Z,99936.03
2023-11-01T16:27:23.097Z,99930.09
2023-11-01T16:39:47.875Z,99927.56
2023-11-01T17:51:16.659Z,99884.94
2023-11-01T18:06:46.926Z,99882.47
2023-11-01T18:14:30.404Z,99877.59
2023-11-01T18:38:33.925Z,99862.16
2023-11-01T18:50:44.034Z,99861.03
2023-11-01T18:54:41.568Z,99871.25
2023-11-01T19:02:23.669Z,99871.97
2023-11-01T19:26:29.630Z,99863.16
2023-11-01T19:34:22.280Z,99866.31
2023-11-01T19:42:19.810Z,99867.34
2023-11-01T19:50:05.223Z,99851.94
2023-11-01T19:57:51.274Z,99852.09
2023-11-01T20:01:40.383Z,99860.16
2023-11-01T20:05:27.220Z,99853.56
2023-11-01T20:09:05.409Z,99848.66
2023-11-01T20:20:45.770Z,99836.16
2023-11-01T20:24:37.553Z,99842.00
2023-11-01T20:40:14.297Z,99829.63
2023-11-01T20:48:06.159Z,99814.19
2023-11-01T21:00:11.195Z,99808.22
2023-11-01T21:24:54.048Z,99790.34
2023-11-01T21:37:32.026Z,99789.78
2023-11-01T21:45:29.121Z,99762.59
2023-11-01T21:49:23.059Z,99774.44
2023-11-01T22:01:40.582Z,99750.72
2023-11-01T22:17:52.201Z,99763.66
2023-11-01T22:21:16.492Z,99761.25
2023-11-01T22:24:52.409Z,99764.97
2023-11-01T22:36:27.185Z,99726.50
2023-11-01T23:00:36.154Z,99713.16
2023-11-01T23:04:59.016Z,99711.00
2023-11-01T23:36:57.156Z,99690.66
2023-11-01T23:49:48.463Z,99657.50
